sensor_id;sensor_type;location;lat;lon;timestamp;temperature;humidity
52305;DHT22;38248;52.722;6.734;2022-07-04T00:00:39;13.40;99.90
52305;DHT22;38248;52.722;6.734;2022-07-04T00:03:05;13.50;99.90
52305;DHT22;38248;52.722;6.734;2022-07-04T00:05:31;13.50;99.90
52305;DHT22;38248;52.722;6.734;2022-07-04T00:07:56;13.40;99.90
52305;DHT22;38248;52.722;6.734;2022-07-04T00:10:22;13.30;99.90
52305;DHT22;38248;52.722;6.734;2022-07-04T00:12:48;13.30;99.90
52305;DHT22;38248;52.722;6.734;2022-07-04T00:15:16;13.20;99.90
52305;DHT22;38248;52.722;6.734;2022-07-04T00:17:42;13.20;99.90
52305;DHT22;38248;52.722;6.734;2022-07-04T00:20:09;13.20;99.90
52305;DHT22;38248;52.722;6.734;2022-07-04T00:22:35;13.10;99.90
52305;DHT22;38248;52.722;6.734;2022-07-04T00:25:01;13.00;99.90
52305;DHT22;38248;52.722;6.734;2022-07-04T00:27:26;13.00;99.90
52305;DHT22;38248;52.722;6.734;2022-07-04T00:29:52;13.00;99.90
52305;DHT22;38248;52.722;6.734;2022-07-04T00:32:18;13.00;99.90
52305;DHT22;38248;52.722;6.734;2022-07-04T00:34:44;12.90;99.90
52305;DHT22;38248;52.722;6.734;2022-07-04T00:37:09;12.90;99.90
52305;DHT22;38248;52.722;6.734;2022-07-04T00:39:35;12.90;99.90
52305;DHT22;38248;52.722;6.734;2022-07-04T00:42:01;12.90;99.90
52305;DHT22;38248;52.722;6.734;2022-07-04T00:44:30;12.90;99.90
52305;DHT22;38248;52.722;6.734;2022-07-04T00:46:56;12.90;99.90
52305;DHT22;38248;52.722;6.734;2022-07-04T00:49:22;12.80;99.90
52305;DHT22;38248;52.722;6.734;2022-07-04T00:51:47;12.80;99.90
52305;DHT22;38248;52.722;6.734;2022-07-04T00:54:15;12.80;99.90
52305;DHT22;38248;52.722;6.734;2022-07-04T00:56:44;12.70;99.90
52305;DHT22;38248;52.722;6.734;2022-07-04T00:59:11;12.80;99.90
52305;DHT22;38248;52.722;6.734;2022-07-04T01:01:37;12.70;99.90
52305;DHT22;38248;52.722;6.734;2022-07-04T01:04:04;12.70;99.90
52305;DHT22;38248;52.722;6.734;2022-07-04T01:06:30;12.70;99.90
52305;DHT22;38248;52.722;6.734;2022-07-04T01:08:56;12.70;99.90
52305;DHT22;38248;52.722;6.734;2022-07-04T01:11:22;12.60;99.90
52305;DHT22;38248;52.722;6.734;2022-07-04T01:13:48;12.60;99.90
52305;DHT22;38248;52.722;6.734;2022-07-04T01:16:14;12.60;99.90
52305;DHT22;38248;52.722;6.734;2022-07-04T01:18:40;12.60;99.90
52305;DHT22;38248;52.722;6.734;2022-07-04T01:21:07;12.60;99.90
52305;DHT22;38248;52.722;6.734;2022-07-04T01:23:39;12.60;99.90
52305;DHT22;38248;52.722;6.734;2022-07-04T01:26:05;12.50;99.90
52305;DHT22;38248;52.722;6.734;2022-07-04T01:28:31;12.50;99.90
52305;DHT22;38248;52.722;6.734;2022-07-04T01:30:57;12.50;99.90
52305;DHT22;38248;52.722;6.734;2022-07-04T01:33:23;12.50;99.90
52305;DHT22;38248;52.722;6.734;2022-07-04T01:35:48;12.40;99.90
52305;DHT22;38248;52.722;6.734;2022-07-04T01:38:14;12.50;99.90
52305;DHT22;38248;52.722;6.734;2022-07-04T01:40:39;12.40;99.90
52305;DHT22;38248;52.722;6.734;2022-07-04T01:43:06;12.40;99.90
52305;DHT22;38248;52.722;6.734;2022-07-04T01:45:32;12.40;99.90
52305;DHT22;38248;52.722;6.734;2022-07-04T01:48:00;12.30;99.90
52305;DHT22;38248;52.722;6.734;2022-07-04T01:50:26;12.30;99.90
52305;DHT22;38248;52.722;6.734;2022-07-04T01:52:52;12.30;99.90
52305;DHT22;38248;52.722;6.734;2022-07-04T01:55:18;12.20;99.90
52305;DHT22;38248;52.722;6.734;2022-07-04T01:57:43;12.20;99.90
52305;DHT22;38248;52.722;6.734;2022-07-04T02:00:10;12.20;99.90
52305;DHT22;38248;52.722;6.734;2022-07-04T02:02:55;12.20;99.90
52305;DHT22;38248;52.722;6.734;2022-07-04T02:05:21;12.20;99.90
52305;DHT22;38248;52.722;6.734;2022-07-04T02:07:47;12.20;99.90
52305;DHT22;38248;52.722;6.734;2022-07-04T02:10:13;12.10;99.90
52305;DHT22;38248;52.722;6.734;2022-07-04T02:12:39;12.10;99.90
52305;DHT22;38248;52.722;6.734;2022-07-04T02:15:23;12.10;99.90
52305;DHT22;38248;52.722;6.734;2022-07-04T02:17:48;12.00;99.90
52305;DHT22;38248;52.722;6.734;2022-07-04T02:20:14;12.00;99.90
52305;DHT22;38248;52.722;6.734;2022-07-04T02:22:40;12.00;99.90
52305;DHT22;38248;52.722;6.734;2022-07-04T02:25:06;12.00;99.90
52305;DHT22;38248;52.722;6.734;2022-07-04T02:27:32;12.00;99.90
52305;DHT22;38248;52.722;6.734;2022-07-04T02:29:57;12.00;99.90
52305;DHT22;38248;52.722;6.734;2022-07-04T02:32:23;12.00;99.90
52305;DHT22;38248;52.722;6.734;2022-07-04T02:34:49;12.00;99.90
52305;DHT22;38248;52.722;6.734;2022-07-04T02:37:14;12.10;99.90
52305;DHT22;38248;52.722;6.734;2022-07-04T02:39:40;11.90;99.90
52305;DHT22;38248;52.722;6.734;2022-07-04T02:42:06;12.00;99.90
52305;DHT22;38248;52.722;6.734;2022-07-04T02:44:34;11.90;99.90
52305;DHT22;38248;52.722;6.734;2022-07-04T02:47:00;11.90;99.90
52305;DHT22;38248;52.722;6.734;2022-07-04T02:49:26;11.90;99.90
52305;DHT22;38248;52.722;6.734;2022-07-04T02:51:51;11.90;99.90
52305;DHT22;38248;52.722;6.734;2022-07-04T02:54:17;11.90;99.90
52305;DHT22;38248;52.722;6.734;2022-07-04T02:56:42;11.90;99.90
52305;DHT22;38248;52.722;6.734;2022-07-04T02:59:08;11.80;99.90
52305;DHT22;38248;52.722;6.734;2022-07-04T03:01:34;11.80;99.90
52305;DHT22;38248;52.722;6.734;2022-07-04T03:03:59;11.80;99.90
52305;DHT22;38248;52.722;6.734;2022-07-04T03:06:25;11.80;99.90
52305;DHT22;38248;52.722;6.734;2022-07-04T03:08:51;11.80;99.90
52305;DHT22;38248;52.722;6.734;2022-07-04T03:11:18;11.80;99.90
52305;DHT22;38248;52.722;6.734;2022-07-04T03:13:44;11.80;99.90
52305;DHT22;38248;52.722;6.734;2022-07-04T03:16:10;11.70;99.90
52305;DHT22;38248;52.722;6.734;2022-07-04T03:18:36;11.70;99.90
52305;DHT22;38248;52.722;6.734;2022-07-04T03:21:02;11.70;99.90
52305;DHT22;38248;52.722;6.734;2022-07-04T03:23:33;11.70;99.90
52305;DHT22;38248;52.722;6.734;2022-07-04T03:25:59;11.70;99.90
52305;DHT22;38248;52.722;6.734;2022-07-04T03:28:24;11.70;99.90
52305;DHT22;38248;52.722;6.734;2022-07-04T03:30:50;11.70;99.90
52305;DHT22;38248;52.722;6.734;2022-07-04T03:33:16;11.60;99.90
52305;DHT22;38248;52.722;6.734;2022-07-04T03:35:41;11.70;99.90
52305;DHT22;38248;52.722;6.734;2022-07-04T03:38:07;11.70;99.90
52305;DHT22;38248;52.722;6.734;2022-07-04T03:40:32;11.80;99.90
52305;DHT22;38248;52.722;6.734;2022-07-04T03:43:00;11.80;99.90
52305;DHT22;38248;52.722;6.734;2022-07-04T03:45:26;11.80;99.90
52305;DHT22;38248;52.722;6.734;2022-07-04T03:47:51;12.00;99.90
52305;DHT22;38248;52.722;6.734;2022-07-04T03:50:17;12.00;99.90
52305;DHT22;38248;52.722;6.734;2022-07-04T03:52:43;12.00;99.90
52305;DHT22;38248;52.722;6.734;2022-07-04T03:55:09;12.10;99.90
52305;DHT22;38248;52.722;6.734;2022-07-04T03:57:35;12.20;99.90
52305;DHT22;38248;52.722;6.734;2022-07-04T04:00:01;12.20;99.90
52305;DHT22;38248;52.722;6.734;2022-07-04T04:02:27;12.20;99.90
52305;DHT22;38248;52.722;6.734;2022-07-04T04:04:53;12.30;99.90
52305;DHT22;38248;52.722;6.734;2022-07-04T04:07:37;12.40;99.90
52305;DHT22;38248;52.722;6.734;2022-07-04T04:10:03;12.40;99.90
52305;DHT22;38248;52.722;6.734;2022-07-04T04:12:28;12.50;99.90
52305;DHT22;38248;52.722;6.734;2022-07-04T04:14:54;12.50;99.90
52305;DHT22;38248;52.722;6.734;2022-07-04T04:17:20;12.50;99.90
52305;DHT22;38248;52.722;6.734;2022-07-04T04:19:45;12.60;99.90
52305;DHT22;38248;52.722;6.734;2022-07-04T04:22:11;12.60;99.90
52305;DHT22;38248;52.722;6.734;2022-07-04T04:24:37;12.60;99.90
52305;DHT22;38248;52.722;6.734;2022-07-04T04:27:03;12.70;99.90
52305;DHT22;38248;52.722;6.734;2022-07-04T04:29:28;12.70;99.90
52305;DHT22;38248;52.722;6.734;2022-07-04T04:31:57;12.70;99.90
52305;DHT22;38248;52.722;6.734;2022-07-04T04:34:22;12.70;99.90
52305;DHT22;38248;52.722;6.734;2022-07-04T04:36:48;12.70;99.90
52305;DHT22;38248;52.722;6.734;2022-07-04T04:39:14;12.90;99.90
52305;DHT22;38248;52.722;6.734;2022-07-04T04:41:39;12.90;99.90
52305;DHT22;38248;52.722;6.734;2022-07-04T04:44:05;12.90;99.90
52305;DHT22;38248;52.722;6.734;2022-07-04T04:46:31;13.00;99.90
52305;DHT22;38248;52.722;6.734;2022-07-04T04:48:56;13.10;99.90
52305;DHT22;38248;52.722;6.734;2022-07-04T04:51:22;13.10;99.90
52305;DHT22;38248;52.722;6.734;2022-07-04T04:53:48;13.30;99.90
52305;DHT22;38248;52.722;6.734;2022-07-04T04:56:13;13.30;99.90
52305;DHT22;38248;52.722;6.734;2022-07-04T04:58:39;13.30;99.90
52305;DHT22;38248;52.722;6.734;2022-07-04T05:01:05;13.50;99.90
52305;DHT22;38248;52.722;6.734;2022-07-04T05:03:31;13.50;99.90
52305;DHT22;38248;52.722;6.734;2022-07-04T05:05:56;13.60;99.90
52305;DHT22;38248;52.722;6.734;2022-07-04T05:08:22;13.70;99.90
52305;DHT22;38248;52.722;6.734;2022-07-04T05:10:50;13.70;99.90
52305;DHT22;38248;52.722;6.734;2022-07-04T05:13:16;13.70;99.90
52305;DHT22;38248;52.722;6.734;2022-07-04T05:15:41;13.80;99.90
52305;DHT22;38248;52.722;6.734;2022-07-04T05:18:07;13.90;99.90
52305;DHT22;38248;52.722;6.734;2022-07-04T05:20:35;14.00;99.90
52305;DHT22;38248;52.722;6.734;2022-07-04T05:23:01;14.00;99.90
52305;DHT22;38248;52.722;6.734;2022-07-04T05:25:26;13.90;99.90
52305;DHT22;38248;52.722;6.734;2022-07-04T05:27:52;14.00;99.90
52305;DHT22;38248;52.722;6.734;2022-07-04T05:30:18;14.10;99.90
52305;DHT22;38248;52.722;6.734;2022-07-04T05:32:43;14.10;99.90
52305;DHT22;38248;52.722;6.734;2022-07-04T05:35:09;14.10;99.90
52305;DHT22;38248;52.722;6.734;2022-07-04T05:37:38;14.20;99.90
52305;DHT22;38248;52.722;6.734;2022-07-04T05:40:04;14.20;99.90
52305;DHT22;38248;52.722;6.734;2022-07-04T05:42:30;14.30;99.90
52305;DHT22;38248;52.722;6.734;2022-07-04T05:44:58;14.40;99.90
52305;DHT22;38248;52.722;6.734;2022-07-04T05:47:24;14.40;99.90
52305;DHT22;38248;52.722;6.734;2022-07-04T05:49:50;14.50;99.90
52305;DHT22;38248;52.722;6.734;2022-07-04T05:52:16;14.50;99.90
52305;DHT22;38248;52.722;6.734;2022-07-04T05:54:42;14.60;99.90
52305;DHT22;38248;52.722;6.734;2022-07-04T05:57:08;14.70;99.90
52305;DHT22;38248;52.722;6.734;2022-07-04T05:59:33;14.80;99.90
52305;DHT22;38248;52.722;6.734;2022-07-04T06:01:59;14.80;99.90
52305;DHT22;38248;52.722;6.734;2022-07-04T06:04:25;14.90;99.90
52305;DHT22;38248;52.722;6.734;2022-07-04T06:06:51;15.00;99.90
52305;DHT22;38248;52.722;6.734;2022-07-04T06:09:17;15.10;99.90
52305;DHT22;38248;52.722;6.734;2022-07-04T06:11:43;15.10;99.90
52305;DHT22;38248;52.722;6.734;2022-07-04T06:14:08;15.20;99.90
52305;DHT22;38248;52.722;6.734;2022-07-04T06:16:34;15.20;99.90
52305;DHT22;38248;52.722;6.734;2022-07-04T06:18:59;15.30;99.90
52305;DHT22;38248;52.722;6.734;2022-07-04T06:21:25;15.30;99.90
52305;DHT22;38248;52.722;6.734;2022-07-04T06:23:51;15.40;99.90
52305;DHT22;38248;52.722;6.734;2022-07-04T06:26:16;15.50;99.90
52305;DHT22;38248;52.722;6.734;2022-07-04T06:28:42;15.60;99.90
52305;DHT22;38248;52.722;6.734;2022-07-04T06:31:08;15.60;99.90
52305;DHT22;38248;52.722;6.734;2022-07-04T06:33:34;15.70;99.90
52305;DHT22;38248;52.722;6.734;2022-07-04T06:36:19;15.80;99.90
52305;DHT22;38248;52.722;6.734;2022-07-04T06:38:45;15.90;99.90
52305;DHT22;38248;52.722;6.734;2022-07-04T06:41:10;16.10;99.90
52305;DHT22;38248;52.722;6.734;2022-07-04T06:43:36;16.20;99.90
52305;DHT22;38248;52.722;6.734;2022-07-04T06:46:02;16.30;99.90
52305;DHT22;38248;52.722;6.734;2022-07-04T06:48:27;16.40;99.90
52305;DHT22;38248;52.722;6.734;2022-07-04T06:50:53;16.50;99.90
52305;DHT22;38248;52.722;6.734;2022-07-04T06:53:18;16.70;99.90
52305;DHT22;38248;52.722;6.734;2022-07-04T06:55:44;16.80;99.90
52305;DHT22;38248;52.722;6.734;2022-07-04T06:58:10;16.80;99.90
52305;DHT22;38248;52.722;6.734;2022-07-04T07:00:37;16.80;99.90
52305;DHT22;38248;52.722;6.734;2022-07-04T07:03:04;16.80;99.90
52305;DHT22;38248;52.722;6.734;2022-07-04T07:05:30;16.80;99.90
52305;DHT22;38248;52.722;6.734;2022-07-04T07:07:55;16.90;99.90
52305;DHT22;38248;52.722;6.734;2022-07-04T07:10:21;17.00;99.90
52305;DHT22;38248;52.722;6.734;2022-07-04T07:12:47;17.10;99.90
52305;DHT22;38248;52.722;6.734;2022-07-04T07:15:13;17.20;99.90
52305;DHT22;38248;52.722;6.734;2022-07-04T07:17:40;17.30;99.90
52305;DHT22;38248;52.722;6.734;2022-07-04T07:20:06;17.40;99.90
52305;DHT22;38248;52.722;6.734;2022-07-04T07:22:32;17.50;99.90
52305;DHT22;38248;52.722;6.734;2022-07-04T07:24:57;17.60;99.90
52305;DHT22;38248;52.722;6.734;2022-07-04T07:27:23;17.70;99.90
52305;DHT22;38248;52.722;6.734;2022-07-04T07:29:49;17.80;99.90
52305;DHT22;38248;52.722;6.734;2022-07-04T07:32:14;17.90;99.90
52305;DHT22;38248;52.722;6.734;2022-07-04T07:34:40;17.90;99.90
52305;DHT22;38248;52.722;6.734;2022-07-04T07:37:06;18.00;99.90
52305;DHT22;38248;52.722;6.734;2022-07-04T07:39:32;18.10;99.90
52305;DHT22;38248;52.722;6.734;2022-07-04T07:41:58;18.10;99.90
52305;DHT22;38248;52.722;6.734;2022-07-04T07:44:23;18.10;99.90
52305;DHT22;38248;52.722;6.734;2022-07-04T07:46:49;18.20;99.90
52305;DHT22;38248;52.722;6.734;2022-07-04T07:49:15;18.30;99.90
52305;DHT22;38248;52.722;6.734;2022-07-04T07:51:40;18.50;99.90
52305;DHT22;38248;52.722;6.734;2022-07-04T07:54:06;18.70;99.90
52305;DHT22;38248;52.722;6.734;2022-07-04T07:56:32;18.70;99.90
52305;DHT22;38248;52.722;6.734;2022-07-04T07:58:57;18.70;99.90
52305;DHT22;38248;52.722;6.734;2022-07-04T08:01:23;18.70;99.90
52305;DHT22;38248;52.722;6.734;2022-07-04T08:03:48;18.70;99.90
52305;DHT22;38248;52.722;6.734;2022-07-04T08:06:33;18.70;99.90
52305;DHT22;38248;52.722;6.734;2022-07-04T08:08:59;18.70;99.90
52305;DHT22;38248;52.722;6.734;2022-07-04T08:11:25;18.60;99.90
52305;DHT22;38248;52.722;6.734;2022-07-04T08:13:51;18.60;99.90
52305;DHT22;38248;52.722;6.734;2022-07-04T08:16:17;18.60;99.90
52305;DHT22;38248;52.722;6.734;2022-07-04T08:18:43;18.60;99.90
52305;DHT22;38248;52.722;6.734;2022-07-04T08:21:09;18.80;99.90
52305;DHT22;38248;52.722;6.734;2022-07-04T08:23:36;18.90;99.90
52305;DHT22;38248;52.722;6.734;2022-07-04T08:26:02;18.80;99.90
52305;DHT22;38248;52.722;6.734;2022-07-04T08:28:29;18.80;99.90
52305;DHT22;38248;52.722;6.734;2022-07-04T08:30:55;18.60;99.90
52305;DHT22;38248;52.722;6.734;2022-07-04T08:33:22;18.50;99.90
52305;DHT22;38248;52.722;6.734;2022-07-04T08:35:48;18.50;99.90
52305;DHT22;38248;52.722;6.734;2022-07-04T08:38:13;18.60;99.90
52305;DHT22;38248;52.722;6.734;2022-07-04T08:40:40;18.60;99.90
52305;DHT22;38248;52.722;6.734;2022-07-04T08:43:06;18.60;99.90
52305;DHT22;38248;52.722;6.734;2022-07-04T08:45:33;18.60;99.90
52305;DHT22;38248;52.722;6.734;2022-07-04T08:48:07;18.50;99.90
52305;DHT22;38248;52.722;6.734;2022-07-04T08:50:49;18.50;99.90
52305;DHT22;38248;52.722;6.734;2022-07-04T08:53:19;18.70;99.90
52305;DHT22;38248;52.722;6.734;2022-07-04T08:55:46;19.00;99.90
52305;DHT22;38248;52.722;6.734;2022-07-04T08:58:31;19.20;99.90
52305;DHT22;38248;52.722;6.734;2022-07-04T09:01:05;19.40;99.90
52305;DHT22;38248;52.722;6.734;2022-07-04T09:03:32;19.40;99.90
52305;DHT22;38248;52.722;6.734;2022-07-04T09:05:58;19.50;99.90
52305;DHT22;38248;52.722;6.734;2022-07-04T09:08:24;19.80;99.90
52305;DHT22;38248;52.722;6.734;2022-07-04T09:10:51;20.30;99.90
52305;DHT22;38248;52.722;6.734;2022-07-04T09:13:18;20.60;99.90
52305;DHT22;38248;52.722;6.734;2022-07-04T09:15:49;20.80;99.90
52305;DHT22;38248;52.722;6.734;2022-07-04T09:18:31;21.10;99.90
52305;DHT22;38248;52.722;6.734;2022-07-04T09:21:00;21.20;99.90
52305;DHT22;38248;52.722;6.734;2022-07-04T09:23:28;21.40;99.90
52305;DHT22;38248;52.722;6.734;2022-07-04T09:26:08;21.40;99.90
52305;DHT22;38248;52.722;6.734;2022-07-04T09:28:34;21.40;99.90
52305;DHT22;38248;52.722;6.734;2022-07-04T09:31:00;21.50;99.90
52305;DHT22;38248;52.722;6.734;2022-07-04T09:33:45;21.40;99.90
52305;DHT22;38248;52.722;6.734;2022-07-04T09:36:16;21.10;99.90
52305;DHT22;38248;52.722;6.734;2022-07-04T09:38:43;20.90;99.90
52305;DHT22;38248;52.722;6.734;2022-07-04T09:41:09;20.80;99.90
52305;DHT22;38248;52.722;6.734;2022-07-04T09:44:03;20.90;99.90
52305;DHT22;38248;52.722;6.734;2022-07-04T09:46:30;20.90;99.90
52305;DHT22;38248;52.722;6.734;2022-07-04T09:48:55;20.80;99.90
52305;DHT22;38248;52.722;6.734;2022-07-04T09:54:24;20.70;99.90
52305;DHT22;38248;52.722;6.734;2022-07-04T09:56:55;20.90;99.90
52305;DHT22;38248;52.722;6.734;2022-07-04T09:59:22;21.10;99.90
52305;DHT22;38248;52.722;6.734;2022-07-04T10:01:48;21.30;99.90
52305;DHT22;38248;52.722;6.734;2022-07-04T10:04:14;21.60;99.90
52305;DHT22;38248;52.722;6.734;2022-07-04T10:06:41;21.90;99.90
52305;DHT22;38248;52.722;6.734;2022-07-04T10:11:38;22.10;99.50
52305;DHT22;38248;52.722;6.734;2022-07-04T10:14:06;22.10;99.00
52305;DHT22;38248;52.722;6.734;2022-07-04T10:16:32;21.90;98.80
52305;DHT22;38248;52.722;6.734;2022-07-04T10:18:58;21.70;98.30
52305;DHT22;38248;52.722;6.734;2022-07-04T10:21:24;21.50;96.70
52305;DHT22;38248;52.722;6.734;2022-07-04T10:23:50;21.40;97.20
52305;DHT22;38248;52.722;6.734;2022-07-04T10:26:21;21.50;97.20
52305;DHT22;38248;52.722;6.734;2022-07-04T10:28:49;21.60;96.50
52305;DHT22;38248;52.722;6.734;2022-07-04T10:31:16;21.70;96.30
52305;DHT22;38248;52.722;6.734;2022-07-04T10:33:42;21.60;96.40
52305;DHT22;38248;52.722;6.734;2022-07-04T10:36:17;21.60;97.10
52305;DHT22;38248;52.722;6.734;2022-07-04T10:38:49;21.70;95.60
52305;DHT22;38248;52.722;6.734;2022-07-04T10:41:16;21.60;94.20
52305;DHT22;38248;52.722;6.734;2022-07-04T10:48:59;22.10;93.40
52305;DHT22;38248;52.722;6.734;2022-07-04T10:54:28;22.40;92.30
52305;DHT22;38248;52.722;6.734;2022-07-04T10:57:23;22.50;91.90
52305;DHT22;38248;52.722;6.734;2022-07-04T11:02:29;22.90;91.50
52305;DHT22;38248;52.722;6.734;2022-07-04T11:05:11;22.80;91.00
52305;DHT22;38248;52.722;6.734;2022-07-04T11:18:12;22.80;85.00
52305;DHT22;38248;52.722;6.734;2022-07-04T11:20:44;22.70;83.40
52305;DHT22;38248;52.722;6.734;2022-07-04T11:23:12;22.70;84.90
52305;DHT22;38248;52.722;6.734;2022-07-04T11:25:45;22.60;84.20
52305;DHT22;38248;52.722;6.734;2022-07-04T11:28:21;22.50;82.70
52305;DHT22;38248;52.722;6.734;2022-07-04T11:30:51;22.30;84.90
52305;DHT22;38248;52.722;6.734;2022-07-04T11:33:21;22.30;86.60
52305;DHT22;38248;52.722;6.734;2022-07-04T11:36:13;22.50;86.80
52305;DHT22;38248;52.722;6.734;2022-07-04T11:38:53;22.70;87.40
52305;DHT22;38248;52.722;6.734;2022-07-04T11:41:26;22.90;88.50
52305;DHT22;38248;52.722;6.734;2022-07-04T11:44:15;23.00;85.50
52305;DHT22;38248;52.722;6.734;2022-07-04T11:47:17;23.20;86.60
52305;DHT22;38248;52.722;6.734;2022-07-04T11:49:52;23.30;84.90
52305;DHT22;38248;52.722;6.734;2022-07-04T11:54:51;23.40;85.10
52305;DHT22;38248;52.722;6.734;2022-07-04T11:57:26;23.50;83.00
52305;DHT22;38248;52.722;6.734;2022-07-04T12:00:05;23.40;81.30
52305;DHT22;38248;52.722;6.734;2022-07-04T12:02:31;23.20;81.50
52305;DHT22;38248;52.722;6.734;2022-07-04T12:04:59;23.20;82.80
52305;DHT22;38248;52.722;6.734;2022-07-04T12:07:27;23.00;81.60
52305;DHT22;38248;52.722;6.734;2022-07-04T12:09:54;23.00;82.40
52305;DHT22;38248;52.722;6.734;2022-07-04T12:12:20;23.10;82.70
52305;DHT22;38248;52.722;6.734;2022-07-04T12:15:06;23.10;82.20
52305;DHT22;38248;52.722;6.734;2022-07-04T12:17:38;23.00;83.00
52305;DHT22;38248;52.722;6.734;2022-07-04T12:20:14;23.10;83.50
52305;DHT22;38248;52.722;6.734;2022-07-04T12:22:51;23.30;84.80
52305;DHT22;38248;52.722;6.734;2022-07-04T12:25:32;23.40;82.60
52305;DHT22;38248;52.722;6.734;2022-07-04T12:28:02;23.40;82.20
52305;DHT22;38248;52.722;6.734;2022-07-04T12:30:39;23.20;83.00
52305;DHT22;38248;52.722;6.734;2022-07-04T12:33:07;23.10;82.00
52305;DHT22;38248;52.722;6.734;2022-07-04T12:35:43;23.10;82.40
52305;DHT22;38248;52.722;6.734;2022-07-04T12:40:51;23.10;81.20
52305;DHT22;38248;52.722;6.734;2022-07-04T12:43:17;23.10;81.00
52305;DHT22;38248;52.722;6.734;2022-07-04T12:45:51;23.10;80.10
52305;DHT22;38248;52.722;6.734;2022-07-04T12:48:25;23.10;79.90
52305;DHT22;38248;52.722;6.734;2022-07-04T12:50:53;22.90;80.10
52305;DHT22;38248;52.722;6.734;2022-07-04T12:53:19;22.80;81.30
52305;DHT22;38248;52.722;6.734;2022-07-04T12:55:46;22.70;80.80
52305;DHT22;38248;52.722;6.734;2022-07-04T12:58:15;22.80;81.00
52305;DHT22;38248;52.722;6.734;2022-07-04T13:00:41;23.10;83.30
52305;DHT22;38248;52.722;6.734;2022-07-04T13:03:07;23.30;83.10
52305;DHT22;38248;52.722;6.734;2022-07-04T13:05:34;23.40;82.00
52305;DHT22;38248;52.722;6.734;2022-07-04T13:08:01;23.30;78.70
52305;DHT22;38248;52.722;6.734;2022-07-04T13:10:27;23.20;79.60
52305;DHT22;38248;52.722;6.734;2022-07-04T13:12:52;23.30;80.00
52305;DHT22;38248;52.722;6.734;2022-07-04T13:15:18;23.30;79.80
52305;DHT22;38248;52.722;6.734;2022-07-04T13:17:44;23.40;80.20
52305;DHT22;38248;52.722;6.734;2022-07-04T13:20:09;23.40;80.30
52305;DHT22;38248;52.722;6.734;2022-07-04T13:22:35;23.60;79.10
52305;DHT22;38248;52.722;6.734;2022-07-04T13:25:01;23.70;79.10
52305;DHT22;38248;52.722;6.734;2022-07-04T13:27:29;23.80;79.40
52305;DHT22;38248;52.722;6.734;2022-07-04T13:29:56;23.90;79.50
52305;DHT22;38248;52.722;6.734;2022-07-04T13:32:21;24.10;79.10
52305;DHT22;38248;52.722;6.734;2022-07-04T13:34:47;24.10;78.00
52305;DHT22;38248;52.722;6.734;2022-07-04T13:37:13;24.00;75.10
52305;DHT22;38248;52.722;6.734;2022-07-04T13:39:40;24.00;74.30
52305;DHT22;38248;52.722;6.734;2022-07-04T13:42:06;23.80;74.30
52305;DHT22;38248;52.722;6.734;2022-07-04T13:44:32;23.80;74.60
52305;DHT22;38248;52.722;6.734;2022-07-04T13:46:57;23.80;74.70
52305;DHT22;38248;52.722;6.734;2022-07-04T13:49:24;23.80;74.60
52305;DHT22;38248;52.722;6.734;2022-07-04T13:51:50;23.90;75.00
52305;DHT22;38248;52.722;6.734;2022-07-04T13:54:19;23.90;74.00
52305;DHT22;38248;52.722;6.734;2022-07-04T13:56:45;23.90;73.40
52305;DHT22;38248;52.722;6.734;2022-07-04T13:59:10;23.90;71.60
52305;DHT22;38248;52.722;6.734;2022-07-04T14:01:36;23.80;72.60
52305;DHT22;38248;52.722;6.734;2022-07-04T14:04:02;23.80;73.10
52305;DHT22;38248;52.722;6.734;2022-07-04T14:06:28;23.80;71.60
52305;DHT22;38248;52.722;6.734;2022-07-04T14:08:54;23.80;73.60
52305;DHT22;38248;52.722;6.734;2022-07-04T14:11:20;23.70;72.60
52305;DHT22;38248;52.722;6.734;2022-07-04T14:13:45;23.80;72.40
52305;DHT22;38248;52.722;6.734;2022-07-04T14:16:11;23.80;71.70
52305;DHT22;38248;52.722;6.734;2022-07-04T14:18:37;23.90;71.00
52305;DHT22;38248;52.722;6.734;2022-07-04T14:21:02;24.00;72.50
52305;DHT22;38248;52.722;6.734;2022-07-04T14:23:28;24.10;70.60
52305;DHT22;38248;52.722;6.734;2022-07-04T14:26:07;24.20;69.70
52305;DHT22;38248;52.722;6.734;2022-07-04T14:28:32;24.30;69.90
52305;DHT22;38248;52.722;6.734;2022-07-04T14:30:58;24.50;70.20
52305;DHT22;38248;52.722;6.734;2022-07-04T14:33:24;24.50;68.00
52305;DHT22;38248;52.722;6.734;2022-07-04T14:35:50;24.50;69.50
52305;DHT22;38248;52.722;6.734;2022-07-04T14:38:16;24.60;69.20
52305;DHT22;38248;52.722;6.734;2022-07-04T14:40:42;24.80;69.10
52305;DHT22;38248;52.722;6.734;2022-07-04T14:43:11;25.00;68.70
52305;DHT22;38248;52.722;6.734;2022-07-04T14:45:37;25.10;67.40
52305;DHT22;38248;52.722;6.734;2022-07-04T14:48:03;25.10;66.70
52305;DHT22;38248;52.722;6.734;2022-07-04T14:50:29;25.20;66.20
52305;DHT22;38248;52.722;6.734;2022-07-04T14:52:54;25.20;64.40
52305;DHT22;38248;52.722;6.734;2022-07-04T14:55:20;25.00;63.70
52305;DHT22;38248;52.722;6.734;2022-07-04T14:57:46;25.10;65.70
52305;DHT22;38248;52.722;6.734;2022-07-04T15:00:12;25.20;66.00
52305;DHT22;38248;52.722;6.734;2022-07-04T15:02:37;25.10;61.80
52305;DHT22;38248;52.722;6.734;2022-07-04T15:05:03;25.00;61.10
52305;DHT22;38248;52.722;6.734;2022-07-04T15:07:29;24.90;62.20
52305;DHT22;38248;52.722;6.734;2022-07-04T15:09:55;25.00;62.20
52305;DHT22;38248;52.722;6.734;2022-07-04T15:12:21;24.90;61.10
52305;DHT22;38248;52.722;6.734;2022-07-04T15:14:47;24.90;60.10
52305;DHT22;38248;52.722;6.734;2022-07-04T15:17:15;25.00;59.90
52305;DHT22;38248;52.722;6.734;2022-07-04T15:19:41;24.90;58.60
52305;DHT22;38248;52.722;6.734;2022-07-04T15:22:25;24.90;60.30
52305;DHT22;38248;52.722;6.734;2022-07-04T15:25:09;24.90;59.00
52305;DHT22;38248;52.722;6.734;2022-07-04T15:27:34;25.00;60.00
52305;DHT22;38248;52.722;6.734;2022-07-04T15:30:00;25.00;60.40
52305;DHT22;38248;52.722;6.734;2022-07-04T15:32:26;25.20;59.90
52305;DHT22;38248;52.722;6.734;2022-07-04T15:34:52;25.20;57.90
52305;DHT22;38248;52.722;6.734;2022-07-04T15:37:18;25.10;56.30
52305;DHT22;38248;52.722;6.734;2022-07-04T15:39:44;25.00;57.00
52305;DHT22;38248;52.722;6.734;2022-07-04T15:42:09;25.00;57.50
52305;DHT22;38248;52.722;6.734;2022-07-04T15:44:35;25.20;57.70
52305;DHT22;38248;52.722;6.734;2022-07-04T15:47:00;25.30;58.10
52305;DHT22;38248;52.722;6.734;2022-07-04T15:49:36;25.20;56.30
52305;DHT22;38248;52.722;6.734;2022-07-04T15:52:05;24.70;56.20
52305;DHT22;38248;52.722;6.734;2022-07-04T15:54:31;24.20;57.60
52305;DHT22;38248;52.722;6.734;2022-07-04T15:56:57;23.90;58.10
52305;DHT22;38248;52.722;6.734;2022-07-04T15:59:23;23.40;58.10
52305;DHT22;38248;52.722;6.734;2022-07-04T16:01:49;23.10;58.20
52305;DHT22;38248;52.722;6.734;2022-07-04T16:04:15;22.90;58.70